sensor_id;sensor_type;location;lat;lon;timestamp;pressure;altitude;pressure_sealevel;temperature;humidity
63556;BME280;49700;48.072;7.800;2023-08-06T00:01:36;98778.19;;;18.89;nan
63556;BME280;49700;48.072;7.800;2023-08-06T00:04:02;98782.16;;;18.85;nan
63556;BME280;49700;48.072;7.800;2023-08-06T00:06:27;98781.69;;;18.81;nan
63556;BME280;49700;48.072;7.800;2023-08-06T00:08:52;98792.19;;;18.74;nan
63556;BME280;49700;48.072;7.800;2023-08-06T00:11:18;98769.88;;;18.67;nan
63556;BME280;49700;48.072;7.800;2023-08-06T00:13:43;98781.38;;;18.60;nan
63556;BME280;49700;48.072;7.800;2023-08-06T00:16:12;98770.59;;;18.53;nan
63556;BME280;49700;48.072;7.800;2023-08-06T00:18:38;98777.56;;;18.46;nan
63556;BME280;49700;48.072;7.800;2023-08-06T00:21:04;98778.91;;;18.42;nan
63556;BME280;49700;48.072;7.800;2023-08-06T00:23:30;98779.56;;;18.35;nan
63556;BME280;49700;48.072;7.800;2023-08-06T00:25:55;98775.25;;;18.34;nan
63556;BME280;49700;48.072;7.800;2023-08-06T00:28:20;98775.59;;;18.31;nan
63556;BME280;49700;48.072;7.800;2023-08-06T00:30:46;98787.72;;;18.34;nan
63556;BME280;49700;48.072;7.800;2023-08-06T00:33:17;98783.91;;;18.37;nan
63556;BME280;49700;48.072;7.800;2023-08-06T00:35:42;98774.44;;;18.42;nan
63556;BME280;49700;48.072;7.800;2023-08-06T00:38:07;98775.06;;;18.44;nan
63556;BME280;49700;48.072;7.800;2023-08-06T00:40:33;98767.59;;;18.48;nan
63556;BME280;49700;48.072;7.800;2023-08-06T00:42:58;98759.94;;;18.53;nan
63556;BME280;49700;48.072;7.800;2023-08-06T00:45:24;98754.63;;;18.53;nan
63556;BME280;49700;48.072;7.800;2023-08-06T00:47:50;98739.84;;;18.50;nan
63556;BME280;49700;48.072;7.800;2023-08-06T00:50:16;98736.50;;;18.48;nan
63556;BME280;49700;48.072;7.800;2023-08-06T00:52:43;98734.34;;;18.44;nan
63556;BME280;49700;48.072;7.800;2023-08-06T00:55:08;98730.38;;;18.40;nan
63556;BME280;49700;48.072;7.800;2023-08-06T00:57:35;98724.41;;;18.38;nan
63556;BME280;49700;48.072;7.800;2023-08-06T01:00:00;98743.16;;;18.36;nan
63556;BME280;49700;48.072;7.800;2023-08-06T01:02:26;98737.84;;;18.36;nan
63556;BME280;49700;48.072;7.800;2023-08-06T01:04:51;98733.38;;;18.37;nan
63556;BME280;49700;48.072;7.800;2023-08-06T01:10:25;98732.22;;;18.39;nan
63556;BME280;49700;48.072;7.800;2023-08-06T01:13:10;98733.06;;;18.40;nan
63556;BME280;49700;48.072;7.800;2023-08-06T01:15:47;98737.19;;;18.42;nan
63556;BME280;49700;48.072;7.800;2023-08-06T01:18:14;98734.34;;;18.44;nan
63556;BME280;49700;48.072;7.800;2023-08-06T01:20:40;98735.69;;;18.48;nan
63556;BME280;49700;48.072;7.800;2023-08-06T01:23:06;98739.84;;;18.50;nan
63556;BME280;49700;48.072;7.800;2023-08-06T01:25:48;98733.16;;;18.54;nan
63556;BME280;49700;48.072;7.800;2023-08-06T01:31:10;98738.34;;;18.56;nan
63556;BME280;49700;48.072;7.800;2023-08-06T01:33:42;98739.97;;;18.57;nan
63556;BME280;49700;48.072;7.800;2023-08-06T01:36:09;98743.66;;;18.56;nan
63556;BME280;49700;48.072;7.800;2023-08-06T01:38:35;98729.34;;;18.57;nan
63556;BME280;49700;48.072;7.800;2023-08-06T01:41:00;98725.03;;;18.56;nan
63556;BME280;49700;48.072;7.800;2023-08-06T01:43:26;98723.53;;;18.53;nan
63556;BME280;49700;48.072;7.800;2023-08-06T01:45:51;98722.41;;;18.48;nan
63556;BME280;49700;48.072;7.800;2023-08-06T01:48:17;98726.56;;;18.42;nan
63556;BME280;49700;48.072;7.800;2023-08-06T01:50:42;98730.22;;;18.41;nan
63556;BME280;49700;48.072;7.800;2023-08-06T01:53:08;98730.53;;;18.38;nan
63556;BME280;49700;48.072;7.800;2023-08-06T01:55:33;98728.91;;;18.37;nan
63556;BME280;49700;48.072;7.800;2023-08-06T01:57:59;98738.53;;;18.38;nan
63556;BME280;49700;48.072;7.800;2023-08-06T02:00:24;98743.03;;;18.38;nan
63556;BME280;49700;48.072;7.800;2023-08-06T02:02:50;98745.19;;;18.34;nan
63556;BME280;49700;48.072;7.800;2023-08-06T02:05:15;98749.69;;;18.33;nan
63556;BME280;49700;48.072;7.800;2023-08-06T02:07:42;98748.00;;;18.32;nan
63556;BME280;49700;48.072;7.800;2023-08-06T02:10:08;98745.69;;;18.21;nan
63556;BME280;49700;48.072;7.800;2023-08-06T02:12:33;98747.53;;;18.12;nan
63556;BME280;49700;48.072;7.800;2023-08-06T02:14:58;98749.38;;;18.04;nan
63556;BME280;49700;48.072;7.800;2023-08-06T02:17:24;98754.50;;;17.97;nan
63556;BME280;49700;48.072;7.800;2023-08-06T02:19:49;98763.16;;;17.91;nan
63556;BME280;49700;48.072;7.800;2023-08-06T02:22:15;98755.31;;;17.81;nan
63556;BME280;49700;48.072;7.800;2023-08-06T02:24:40;98745.00;;;17.70;nan
63556;BME280;49700;48.072;7.800;2023-08-06T02:27:06;98748.94;;;17.58;nan
63556;BME280;49700;48.072;7.800;2023-08-06T02:29:32;98753.25;;;17.51;nan
63556;BME280;49700;48.072;7.800;2023-08-06T02:31:57;98746.59;;;17.46;nan
63556;BME280;49700;48.072;7.800;2023-08-06T02:34:23;98756.56;;;17.44;nan
63556;BME280;49700;48.072;7.800;2023-08-06T02:36:48;98757.72;;;17.42;nan
63556;BME280;49700;48.072;7.800;2023-08-06T02:39:14;98766.31;;;17.36;nan
63556;BME280;49700;48.072;7.800;2023-08-06T02:41:39;98757.84;;;17.32;nan
63556;BME280;49700;48.072;7.800;2023-08-06T02:44:05;98759.69;;;17.32;nan
63556;BME280;49700;48.072;7.800;2023-08-06T02:46:30;98753.69;;;17.30;nan
63556;BME280;49700;48.072;7.800;2023-08-06T02:48:56;98756.84;;;17.25;nan
63556;BME280;49700;48.072;7.800;2023-08-06T02:51:21;98751.03;;;17.21;nan
63556;BME280;49700;48.072;7.800;2023-08-06T02:53:48;98756.34;;;17.21;nan
63556;BME280;49700;48.072;7.800;2023-08-06T02:56:14;98753.69;;;17.21;nan
63556;BME280;49700;48.072;7.800;2023-08-06T02:58:54;98738.59;;;17.22;nan
63556;BME280;49700;48.072;7.800;2023-08-06T03:01:30;98745.56;;;17.23;nan
63556;BME280;49700;48.072;7.800;2023-08-06T03:04:03;98743.75;;;17.23;nan
63556;BME280;49700;48.072;7.800;2023-08-06T03:06:34;98741.91;;;17.24;nan
63556;BME280;49700;48.072;7.800;2023-08-06T03:09:01;98744.72;;;17.22;nan
63556;BME280;49700;48.072;7.800;2023-08-06T03:11:26;98730.63;;;17.22;nan
63556;BME280;49700;48.072;7.800;2023-08-06T03:13:57;98735.25;;;17.20;nan
63556;BME280;49700;48.072;7.800;2023-08-06T03:16:22;98741.72;;;17.17;nan
63556;BME280;49700;48.072;7.800;2023-08-06T03:18:53;98737.59;;;17.15;nan
63556;BME280;49700;48.072;7.800;2023-08-06T03:21:20;98733.56;;;17.11;nan
63556;BME280;49700;48.072;7.800;2023-08-06T03:23:48;98738.53;;;17.06;nan
63556;BME280;49700;48.072;7.800;2023-08-06T03:26:15;98741.81;;;16.99;nan
63556;BME280;49700;48.072;7.800;2023-08-06T03:28:40;98748.59;;;16.94;nan
63556;BME280;49700;48.072;7.800;2023-08-06T03:31:06;98747.75;;;16.85;nan
63556;BME280;49700;48.072;7.800;2023-08-06T03:33:39;98745.56;;;16.80;nan
63556;BME280;49700;48.072;7.800;2023-08-06T03:36:09;98737.22;;;16.75;nan
63556;BME280;49700;48.072;7.800;2023-08-06T03:38:35;98744.81;;;16.70;nan
63556;BME280;49700;48.072;7.800;2023-08-06T03:41:04;98740.97;;;16.65;nan
63556;BME280;49700;48.072;7.800;2023-08-06T03:43:30;98742.25;;;16.60;nan
63556;BME280;49700;48.072;7.800;2023-08-06T03:45:55;98740.09;;;16.56;nan
63556;BME280;49700;48.072;7.800;2023-08-06T03:48:21;98732.94;;;16.48;nan
63556;BME280;49700;48.072;7.800;2023-08-06T03:50:46;98732.56;;;16.43;nan
63556;BME280;49700;48.072;7.800;2023-08-06T03:53:13;98740.81;;;16.40;nan
63556;BME280;49700;48.072;7.800;2023-08-06T03:55:39;98735.16;;;16.35;nan
63556;BME280;49700;48.072;7.800;2023-08-06T03:58:04;98744.56;;;16.29;nan
63556;BME280;49700;48.072;7.800;2023-08-06T04:00:31;98743.50;;;16.22;nan
63556;BME280;49700;48.072;7.800;2023-08-06T04:02:56;98741.63;;;16.14;nan
63556;BME280;49700;48.072;7.800;2023-08-06T04:05:22;98748.53;;;16.07;nan
63556;BME280;49700;48.072;7.800;2023-08-06T04:07:48;98756.94;;;16.03;nan
63556;BME280;49700;48.072;7.800;2023-08-06T04:10:13;98767.34;;;15.96;nan
63556;BME280;49700;48.072;7.800;2023-08-06T04:12:39;98770.56;;;15.90;nan
63556;BME280;49700;48.072;7.800;2023-08-06T04:15:05;98778.81;;;15.87;nan
63556;BME280;49700;48.072;7.800;2023-08-06T04:17:31;98779.44;;;15.81;nan
63556;BME280;49700;48.072;7.800;2023-08-06T04:19:56;98793.81;;;15.78;nan
63556;BME280;49700;48.072;7.800;2023-08-06T04:22:25;98789.50;;;15.77;nan
63556;BME280;49700;48.072;7.800;2023-08-06T04:24:50;98793.94;;;15.77;nan
63556;BME280;49700;48.072;7.800;2023-08-06T04:27:17;98806.53;;;15.75;nan
63556;BME280;49700;48.072;7.800;2023-08-06T04:29:43;98783.00;;;15.72;nan
63556;BME280;49700;48.072;7.800;2023-08-06T04:32:10;98776.84;;;15.71;nan
63556;BME280;49700;48.072;7.800;2023-08-06T04:34:40;98774.06;;;15.73;nan
63556;BME280;49700;48.072;7.800;2023-08-06T04:37:05;98772.94;;;15.75;nan
63556;BME280;49700;48.072;7.800;2023-08-06T04:39:31;98773.75;;;15.76;nan
63556;BME280;49700;48.072;7.800;2023-08-06T04:41:56;98780.88;;;15.75;nan
63556;BME280;49700;48.072;7.800;2023-08-06T04:44:25;98783.66;;;15.74;nan
63556;BME280;49700;48.072;7.800;2023-08-06T04:46:51;98780.19;;;15.73;nan
63556;BME280;49700;48.072;7.800;2023-08-06T04:49:17;98774.38;;;15.69;nan
63556;BME280;49700;48.072;7.800;2023-08-06T04:51:43;98783.28;;;15.68;nan
63556;BME280;49700;48.072;7.800;2023-08-06T04:54:09;98781.47;;;15.69;nan
63556;BME280;49700;48.072;7.800;2023-08-06T04:56:34;98786.63;;;15.70;nan
63556;BME280;49700;48.072;7.800;2023-08-06T04:59:00;98779.56;;;15.61;nan
63556;BME280;49700;48.072;7.800;2023-08-06T05:01:25;98787.50;;;15.61;nan
63556;BME280;49700;48.072;7.800;2023-08-06T05:03:51;98791.09;;;15.60;nan
63556;BME280;49700;48.072;7.800;2023-08-06T05:06:16;98796.31;;;15.52;nan
63556;BME280;49700;48.072;7.800;2023-08-06T05:08:42;98796.78;;;15.47;nan
63556;BME280;49700;48.072;7.800;2023-08-06T05:11:07;98789.97;;;15.45;nan
63556;BME280;49700;48.072;7.800;2023-08-06T05:13:33;98786.94;;;15.40;nan
63556;BME280;49700;48.072;7.800;2023-08-06T05:15:58;98794.47;;;15.35;nan
63556;BME280;49700;48.072;7.800;2023-08-06T05:18:24;98801.88;;;15.31;nan
63556;BME280;49700;48.072;7.800;2023-08-06T05:20:49;98802.31;;;15.26;nan
63556;BME280;49700;48.072;7.800;2023-08-06T05:23:15;98804.44;;;15.23;nan
63556;BME280;49700;48.072;7.800;2023-08-06T05:25:40;98815.16;;;15.21;nan
63556;BME280;49700;48.072;7.800;2023-08-06T05:28:06;98814.06;;;15.14;nan
63556;BME280;49700;48.072;7.800;2023-08-06T05:30:31;98811.13;;;15.17;nan
63556;BME280;49700;48.072;7.800;2023-08-06T05:32:57;98812.81;;;15.18;nan
63556;BME280;49700;48.072;7.800;2023-08-06T05:35:22;98812.63;;;15.20;nan
63556;BME280;49700;48.072;7.800;2023-08-06T05:37:49;98816.50;;;15.25;nan
63556;BME280;49700;48.072;7.800;2023-08-06T05:40:15;98826.13;;;15.26;nan
63556;BME280;49700;48.072;7.800;2023-08-06T05:42:41;98820.53;;;15.30;nan
63556;BME280;49700;48.072;7.800;2023-08-06T05:45:07;98823.06;;;15.31;nan
63556;BME280;49700;48.072;7.800;2023-08-06T05:47:32;98831.81;;;15.32;nan
63556;BME280;49700;48.072;7.800;2023-08-06T05:49:58;98826.38;;;15.33;nan
63556;BME280;49700;48.072;7.800;2023-08-06T05:52:24;98817.31;;;15.36;nan
63556;BME280;49700;48.072;7.800;2023-08-06T05:54:49;98835.38;;;15.40;nan
63556;BME280;49700;48.072;7.800;2023-08-06T05:57:15;98825.81;;;15.39;nan
63556;BME280;49700;48.072;7.800;2023-08-06T05:59:41;98834.56;;;15.40;nan
63556;BME280;49700;48.072;7.800;2023-08-06T06:02:07;98837.34;;;15.38;nan
63556;BME280;49700;48.072;7.800;2023-08-06T06:04:32;98836.22;;;15.41;nan
63556;BME280;49700;48.072;7.800;2023-08-06T06:06:58;98831.19;;;15.47;nan
63556;BME280;49700;48.072;7.800;2023-08-06T06:09:23;98840.34;;;15.53;nan
63556;BME280;49700;48.072;7.800;2023-08-06T06:11:48;98839.75;;;15.59;nan
63556;BME280;49700;48.072;7.800;2023-08-06T06:14:16;98839.44;;;15.62;nan
63556;BME280;49700;48.072;7.800;2023-08-06T06:16:42;98846.41;;;15.63;nan
63556;BME280;49700;48.072;7.800;2023-08-06T06:19:07;98848.69;;;15.58;nan
63556;BME280;49700;48.072;7.800;2023-08-06T06:21:33;98852.72;;;15.53;nan
63556;BME280;49700;48.072;7.800;2023-08-06T06:23:58;98850.84;;;15.45;nan
63556;BME280;49700;48.072;7.800;2023-08-06T06:26:24;98861.84;;;15.40;nan
63556;BME280;49700;48.072;7.800;2023-08-06T06:28:50;98870.91;;;15.38;nan
63556;BME280;49700;48.072;7.800;2023-08-06T06:31:15;98866.75;;;15.35;nan
63556;BME280;49700;48.072;7.800;2023-08-06T06:33:41;98874.56;;;15.37;nan
63556;BME280;49700;48.072;7.800;2023-08-06T06:36:06;98884.16;;;15.38;nan
63556;BME280;49700;48.072;7.800;2023-08-06T06:38:34;98870.22;;;15.36;nan
63556;BME280;49700;48.072;7.800;2023-08-06T06:40:59;98875.81;;;15.33;nan
63556;BME280;49700;48.072;7.800;2023-08-06T06:43:25;98868.03;;;15.31;nan
63556;BME280;49700;48.072;7.800;2023-08-06T06:45:58;98872.47;;;15.31;nan
63556;BME280;49700;48.072;7.800;2023-08-06T06:48:27;98873.47;;;15.30;nan
63556;BME280;49700;48.072;7.800;2023-08-06T06:50:53;98880.88;;;15.26;nan
63556;BME280;49700;48.072;7.800;2023-08-06T06:53:19;98880.00;;;15.25;nan
63556;BME280;49700;48.072;7.800;2023-08-06T06:55:44;98875.41;;;15.27;nan
63556;BME280;49700;48.072;7.800;2023-08-06T06:58:10;98884.47;;;15.25;nan
63556;BME280;49700;48.072;7.800;2023-08-06T07:00:36;98876.25;;;15.28;nan
63556;BME280;49700;48.072;7.800;2023-08-06T07:03:02;98882.53;;;15.27;nan
63556;BME280;49700;48.072;7.800;2023-08-06T07:05:28;98890.31;;;15.29;nan
63556;BME280;49700;48.072;7.800;2023-08-06T07:07:53;98894.75;;;15.28;nan
63556;BME280;49700;48.072;7.800;2023-08-06T07:10:18;98883.34;;;15.27;nan
63556;BME280;49700;48.072;7.800;2023-08-06T07:12:44;98891.97;;;15.30;nan
63556;BME280;49700;48.072;7.800;2023-08-06T07:15:09;98886.41;;;15.33;nan
63556;BME280;49700;48.072;7.800;2023-08-06T07:17:35;98890.13;;;15.40;nan
63556;BME280;49700;48.072;7.800;2023-08-06T07:20:00;98885.25;;;15.45;nan
63556;BME280;49700;48.072;7.800;2023-08-06T07:22:26;98889.13;;;15.51;nan
63556;BME280;49700;48.072;7.800;2023-08-06T07:24:51;98894.25;;;15.52;nan
63556;BME280;49700;48.072;7.800;2023-08-06T07:27:17;98895.75;;;15.55;nan
63556;BME280;49700;48.072;7.800;2023-08-06T07:29:42;98897.28;;;15.57;nan
63556;BME280;49700;48.072;7.800;2023-08-06T07:32:08;98906.91;;;15.58;nan
63556;BME280;49700;48.072;7.800;2023-08-06T07:34:33;98901.63;;;15.58;nan
63556;BME280;49700;48.072;7.800;2023-08-06T07:36:59;98904.94;;;15.60;nan
63556;BME280;49700;48.072;7.800;2023-08-06T07:39:24;98921.50;;;15.62;nan
63556;BME280;49700;48.072;7.800;2023-08-06T07:41:50;98914.94;;;15.66;nan
63556;BME280;49700;48.072;7.800;2023-08-06T07:44:16;98918.16;;;15.70;nan
63556;BME280;49700;48.072;7.800;2023-08-06T07:46:41;98924.00;;;15.74;nan
63556;BME280;49700;48.072;7.800;2023-08-06T07:49:07;98920.78;;;15.80;nan
63556;BME280;49700;48.072;7.800;2023-08-06T07:51:32;98929.38;;;15.82;nan
63556;BME280;49700;48.072;7.800;2023-08-06T07:53:57;98921.31;;;15.83;nan
63556;BME280;49700;48.072;7.800;2023-08-06T07:56:23;98913.50;;;15.82;nan
63556;BME280;49700;48.072;7.800;2023-08-06T07:58:48;98918.78;;;15.82;nan
63556;BME280;49700;48.072;7.800;2023-08-06T08:01:14;98922.13;;;15.84;nan
63556;BME280;49700;48.072;7.800;2023-08-06T08:03:39;98930.59;;;15.87;nan
63556;BME280;49700;48.072;7.800;2023-08-06T08:06:05;98920.41;;;15.92;nan
63556;BME280;49700;48.072;7.800;2023-08-06T08:08:30;98927.91;;;15.97;nan
63556;BME280;49700;48.072;7.800;2023-08-06T08:10:55;98936.53;;;15.99;nan
63556;BME280;49700;48.072;7.800;2023-08-06T08:13:21;98934.13;;;16.06;nan
63556;BME280;49700;48.072;7.800;2023-08-06T08:15:46;98930.03;;;16.11;nan
63556;BME280;49700;48.072;7.800;2023-08-06T08:18:12;98926.94;;;16.16;nan
63556;BME280;49700;48.072;7.800;2023-08-06T08:20:37;98928.47;;;16.19;nan
63556;BME280;49700;48.072;7.800;2023-08-06T08:23:03;98937.78;;;16.23;nan
63556;BME280;49700;48.072;7.800;2023-08-06T08:25:28;98936.50;;;16.27;nan
63556;BME280;49700;48.072;7.800;2023-08-06T08:27:54;98935.19;;;16.31;nan
63556;BME280;49700;48.072;7.800;2023-08-06T08:30:20;98937.03;;;16.30;nan
63556;BME280;49700;48.072;7.800;2023-08-06T08:32:46;98937.19;;;16.29;nan
63556;BME280;49700;48.072;7.800;2023-08-06T08:35:12;98942.50;;;16.29;nan
63556;BME280;49700;48.072;7.800;2023-08-06T08:37:38;98949.44;;;16.30;nan
63556;BME280;49700;48.072;7.800;2023-08-06T08:40:06;98946.28;;;16.26;nan
63556;BME280;49700;48.072;7.800;2023-08-06T08:42:31;98944.91;;;16.22;nan
63556;BME280;49700;48.072;7.800;2023-08-06T08:44:57;98952.84;;;16.22;nan
63556;BME280;49700;48.072;7.800;2023-08-06T08:47:23;98954.53;;;16.23;nan
63556;BME280;49700;48.072;7.800;2023-08-06T08:49:52;98959.81;;;16.23;nan
63556;BME280;49700;48.072;7.800;2023-08-06T08:52:20;98971.25;;;16.24;nan
63556;BME280;49700;48.072;7.800;2023-08-06T08:54:46;98976.56;;;16.24;nan
63556;BME280;49700;48.072;7.800;2023-08-06T08:57:16;98970.56;;;16.22;nan
63556;BME280;49700;48.072;7.800;2023-08-06T08:59:42;98980.84;;;16.25;nan
63556;BME280;49700;48.072;7.800;2023-08-06T09:02:09;98988.81;;;16.25;nan
63556;BME280;49700;48.072;7.800;2023-08-06T09:04:37;98982.69;;;16.24;nan
63556;BME280;49700;48.072;7.800;2023-08-06T09:07:04;98980.84;;;16.25;nan
63556;BME280;49700;48.072;7.800;2023-08-06T09:09:34;98986.03;;;16.26;nan
63556;BME280;49700;48.072;7.800;2023-08-06T09:12:15;98983.06;;;16.29;nan
63556;BME280;49700;48.072;7.800;2023-08-06T09:14:41;98987.94;;;16.34;nan
63556;BME280;49700;48.072;7.800;2023-08-06T09:17:07;98992.75;;;16.38;nan
63556;BME280;49700;48.072;7.800;2023-08-06T09:19:34;98989.53;;;16.45;nan
63556;BME280;49700;48.072;7.800;2023-08-06T09:21:59;98986.41;;;16.49;nan
63556;BME280;49700;48.072;7.800;2023-08-06T09:24:25;98998.41;;;16.53;nan
63556;BME280;49700;48.072;7.800;2023-08-06T09:26:51;98994.44;;;16.57;nan
63556;BME280;49700;48.072;7.800;2023-08-06T09:29:17;99008.09;;;16.63;nan
63556;BME280;49700;48.072;7.800;2023-08-06T09:31:44;99001.50;;;16.67;nan
63556;BME280;49700;48.072;7.800;2023-08-06T09:34:12;99001.59;;;16.75;nan
63556;BME280;49700;48.072;7.800;2023-08-06T09:36:41;99009.78;;;16.81;nan
63556;BME280;49700;48.072;7.800;2023-08-06T09:39:14;99013.00;;;16.85;nan
63556;BME280;49700;48.072;7.800;2023-08-06T09:41:41;99011.00;;;16.87;nan
63556;BME280;49700;48.072;7.800;2023-08-06T09:44:20;98997.91;;;16.86;nan
63556;BME280;49700;48.072;7.800;2023-08-06T09:46:49;99017.75;;;16.81;nan
63556;BME280;49700;48.072;7.800;2023-08-06T09:49:17;99010.09;;;16.78;nan
63556;BME280;49700;48.072;7.800;2023-08-06T09:51:43;99009.38;;;16.76;nan
63556;BME280;49700;48.072;7.800;2023-08-06T09:54:12;99015.16;;;16.72;nan
63556;BME280;49700;48.072;7.800;2023-08-06T09:56:38;99013.63;;;16.69;nan
63556;BME280;49700;48.072;7.800;2023-08-06T09:59:07;99020.72;;;16.69;nan
63556;BME280;49700;48.072;7.800;2023-08-06T10:01:34;99015.44;;;16.69;nan
63556;BME280;49700;48.072;7.800;2023-08-06T10:04:01;99021.41;;;16.71;nan
63556;BME280;49700;48.072;7.800;2023-08-06T10:06:28;99020.28;;;16.73;nan
63556;BME280;49700;48.072;7.800;2023-08-06T10:08:54;99021.97;;;16.74;nan
63556;BME280;49700;48.072;7.800;2023-08-06T10:11:21;99032.72;;;16.73;nan
63556;BME280;49700;48.072;7.800;2023-08-06T10:13:50;99021.41;;;16.71;nan
63556;BME280;49700;48.072;7.800;2023-08-06T10:16:19;99027.84;;;16.68;nan
63556;BME280;49700;48.072;7.800;2023-08-06T10:18:49;99017.41;;;16.67;nan
63556;BME280;49700;48.072;7.800;2023-08-06T10:21:15;99022.88;;;16.65;nan
63556;BME280;49700;48.072;7.800;2023-08-06T10:23:41;99035.44;;;16.63;nan
63556;BME280;49700;48.072;7.800;2023-08-06T10:26:07;99033.47;;;16.65;nan
63556;BME280;49700;48.072;7.800;2023-08-06T10:28:39;99037.81;;;16.66;nan
63556;BME280;49700;48.072;7.800;2023-08-06T10:31:05;99026.34;;;16.66;nan
63556;BME280;49700;48.072;7.800;2023-08-06T10:33:45;99036.13;;;16.65;nan
63556;BME280;49700;48.072;7.800;2023-08-06T10:36:11;99030.81;;;16.65;nan
63556;BME280;49700;48.072;7.800;2023-08-06T10:38:48;99035.00;;;16.68;nan
63556;BME280;49700;48.072;7.800;2023-08-06T10:41:32;99049.91;;;16.69;nan
63556;BME280;49700;48.072;7.800;2023-08-06T10:44:10;99050.59;;;16.71;nan
63556;BME280;49700;48.072;7.800;2023-08-06T10:46:36;99057.72;;;16.70;nan
63556;BME280;49700;48.072;7.800;2023-08-06T10:49:04;99079.47;;;16.74;nan
63556;BME280;49700;48.072;7.800;2023-08-06T10:51:29;99087.41;;;16.74;nan
63556;BME280;49700;48.072;7.800;2023-08-06T10:53:55;99088.72;;;16.70;nan
63556;BME280;49700;48.072;7.800;2023-08-06T10:56:22;99090.53;;;16.69;nan
63556;BME280;49700;48.072;7.800;2023-08-06T10:58:56;99094.03;;;16.70;nan
63556;BME280;49700;48.072;7.800;2023-08-06T11:01:23;99092.06;;;16.72;nan
63556;BME280;49700;48.072;7.800;2023-08-06T11:03:50;99105.75;;;16.77;nan
63556;BME280;49700;48.072;7.800;2023-08-06T11:06:22;99109.63;;;16.83;nan
63556;BME280;49700;48.072;7.800;2023-08-06T11:08:53;99098.53;;;16.87;nan
63556;BME280;49700;48.072;7.800;2023-08-06T11:11:19;99106.19;;;16.90;nan
63556;BME280;49700;48.072;7.800;2023-08-06T11:13:46;99113.88;;;16.93;nan
63556;BME280;49700;48.072;7.800;2023-08-06T11:16:14;99113.00;;;16.93;nan
63556;BME280;49700;48.072;7.800;2023-08-06T11:18:40;99111.22;;;16.93;nan
63556;BME280;49700;48.072;7.800;2023-08-06T11:21:07;99116.78;;;16.90;nan
63556;BME280;49700;48.072;7.800;2023-08-06T11:23:33;99122.09;;;16.90;nan
63556;BME280;49700;48.072;7.800;2023-08-06T11:25:59;99124.75;;;16.90;nan
63556;BME280;49700;48.072;7.800;2023-08-06T11:28:25;99124.75;;;16.90;nan
63556;BME280;49700;48.072;7.800;2023-08-06T11:30:53;99126.44;;;16.91;nan
63556;BME280;49700;48.072;7.800;2023-08-06T11:33:24;99126.28;;;16.93;nan
63556;BME280;49700;48.072;7.800;2023-08-06T11:35:51;99131.44;;;16.94;nan
63556;BME280;49700;48.072;7.800;2023-08-06T11:38:16;99130.44;;;16.95;nan
63556;BME280;49700;48.072;7.800;2023-08-06T11:40:44;99124.47;;;16.93;nan
63556;BME280;49700;48.072;7.800;2023-08-06T11:43:10;99136.06;;;16.92;nan
63556;BME280;49700;48.072;7.800;2023-08-06T11:45:36;99138.03;;;16.90;nan
63556;BME280;49700;48.072;7.800;2023-08-06T11:48:01;99135.22;;;16.92;nan
63556;BME280;49700;48.072;7.800;2023-08-06T11:50:28;99127.28;;;16.92;nan
63556;BME280;49700;48.072;7.800;2023-08-06T11:52:58;99135.75;;;16.95;nan
63556;BME280;49700;48.072;7.800;2023-08-06T11:55:25;99137.44;;;16.96;nan
63556;BME280;49700;48.072;7.800;2023-08-06T11:57:51;99129.88;;;17.01;nan
63556;BME280;49700;48.072;7.800;2023-08-06T12:00:17;99124.78;;;17.08;nan
63556;BME280;49700;48.072;7.800;2023-08-06T12:02:46;99127.06;;;17.21;nan
63556;BME280;49700;48.072;7.800;2023-08-06T12:05:12;99128.22;;;17.36;nan
63556;BME280;49700;48.072;7.800;2023-08-06T12:07:46;99137.19;;;17.61;nan
63556;BME280;49700;48.072;7.800;2023-08-06T12:10:14;99142.88;;;17.84;nan
63556;BME280;49700;48.072;7.800;2023-08-06T12:12:40;99157.41;;;17.98;nan
63556;BME280;49700;48.072;7.800;2023-08-06T12:15:06;99158.91;;;18.01;nan
63556;BME280;49700;48.072;7.800;2023-08-06T12:17:32;99157.34;;;17.90;nan
63556;BME280;49700;48.072;7.800;2023-08-06T12:19:58;99154.09;;;17.78;nan
63556;BME280;49700;48.072;7.800;2023-08-06T12:22:23;99151.06;;;17.73;nan
63556;BME280;49700;48.072;7.800;2023-08-06T12:24:49;99150.75;;;17.76;nan
63556;BME280;49700;48.072;7.800;2023-08-06T12:27:15;99153.50;;;17.84;nan
63556;BME280;49700;48.072;7.800;2023-08-06T12:29:45;99158.41;;;17.97;nan
63556;BME280;49700;48.072;7.800;2023-08-06T12:32:12;99150.72;;;18.12;nan
63556;BME280;49700;48.072;7.800;2023-08-06T12:34:38;99156.56;;;18.24;nan
63556;BME280;49700;48.072;7.800;2023-08-06T12:37:04;99156.75;;;18.30;nan
63556;BME280;49700;48.072;7.800;2023-08-06T12:39:30;99151.81;;;18.35;nan
63556;BME280;49700;48.072;7.800;2023-08-06T12:41:56;99157.50;;;18.41;nan
63556;BME280;49700;48.072;7.800;2023-08-06T12:44:23;99162.66;;;18.42;nan
63556;BME280;49700;48.072;7.800;2023-08-06T12:46:50;99165.47;;;18.41;nan
63556;BME280;49700;48.072;7.800;2023-08-06T12:49:16;99160.47;;;18.38;nan
63556;BME280;49700;48.072;7.800;2023-08-06T12:51:42;99168.91;;;18.33;nan
63556;BME280;49700;48.072;7.800;2023-08-06T12:54:08;99149.09;;;18.27;nan
63556;BME280;49700;48.072;7.800;2023-08-06T12:56:34;99155.56;;;18.25;nan
63556;BME280;49700;48.072;7.800;2023-08-06T12:58:59;99162.13;;;18.39;nan
63556;BME280;49700;48.072;7.800;2023-08-06T13:01:25;99160.53;;;18.54;nan
63556;BME280;49700;48.072;7.800;2023-08-06T13:03:50;99169.25;;;18.64;nan
63556;BME280;49700;48.072;7.800;2023-08-06T13:06:15;99170.56;;;18.68;nan
63556;BME280;49700;48.072;7.800;2023-08-06T13:08:41;99179.22;;;18.70;nan
63556;BME280;49700;48.072;7.800;2023-08-06T13:11:06;99163.13;;;18.72;nan
63556;BME280;49700;48.072;7.800;2023-08-06T13:13:32;99174.28;;;18.75;nan
63556;BME280;49700;48.072;7.800;2023-08-06T13:15:57;99185.44;;;18.79;nan
63556;BME280;49700;48.072;7.800;2023-08-06T13:18:22;99176.50;;;18.88;nan
63556;BME280;49700;48.072;7.800;2023-08-06T13:20:48;99179.19;;;18.96;nan
63556;BME280;49700;48.072;7.800;2023-08-06T13:23:15;99182.03;;;19.03;nan
63556;BME280;49700;48.072;7.800;2023-08-06T13:25:42;99179.91;;;19.15;nan